createdAt,value
2023-02-08T00:00:50.159Z,-1.30
2023-02-08T00:03:37.497Z,-1.30
2023-02-08T00:06:24.939Z,-1.30
2023-02-08T00:09:12.280Z,-1.30
2023-02-08T00:11:59.958Z,-1.30
2023-02-08T00:14:47.522Z,-1.30
2023-02-08T00:17:36.346Z,-1.30
2023-02-08T00:20:23.934Z,-1.30
2023-02-08T00:23:11.932Z,-1.30
2023-02-08T00:25:59.603Z,-1.30
2023-02-08T00:28:47.139Z,-1.30
2023-02-08T00:31:37.897Z,-1.30
2023-02-08T00:34:26.845Z,-1.30
2023-02-08T00:37:14.276Z,-1.30
2023-02-08T00:40:02.694Z,-1.30
2023-02-08T00:42:50.773Z,-1.30
2023-02-08T00:45:38.478Z,-1.30
2023-02-08T00:48:25.785Z,-1.20
2023-02-08T00:51:16.694Z,-1.20
2023-02-08T00:54:04.126Z,-1.20
2023-02-08T00:56:51.974Z,-1.20
2023-02-08T00:59:39.495Z,-1.20
2023-02-08T01:02:27.373Z,-1.20
2023-02-08T01:05:14.798Z,-1.20
2023-02-08T01:08:03.430Z,-1.20
2023-02-08T01:10:50.996Z,-1.20
2023-02-08T01:13:39.301Z,-1.20
2023-02-08T01:16:31.896Z,-1.20
2023-02-08T01:19:21.285Z,-1.20
2023-02-08T01:22:09.023Z,-1.20
2023-02-08T01:24:57.810Z,-1.20
2023-02-08T01:27:45.436Z,-1.20
2023-02-08T01:30:33.539Z,-1.20
2023-02-08T01:33:21.276Z,-1.20
2023-02-08T01:36:09.933Z,-1.20
2023-02-08T01:38:57.610Z,-1.30
2023-02-08T01:41:47.469Z,-1.30
2023-02-08T01:45:28.924Z,-1.30
2023-02-08T01:48:21.035Z,-1.30
2023-02-08T01:51:12.194Z,-1.30
2023-02-08T01:54:00.545Z,-1.30
2023-02-08T01:56:51.075Z,-1.30
2023-02-08T01:59:43.952Z,-1.30
2023-02-08T02:02:32.967Z,-1.30
2023-02-08T02:05:22.233Z,-1.30
2023-02-08T02:08:10.994Z,-1.30
2023-02-08T02:10:58.484Z,-1.30
2023-02-08T02:13:50.740Z,-1.30
2023-02-08T02:16:38.778Z,-1.30
2023-02-08T02:19:34.579Z,-1.20
2023-02-08T02:23:02.968Z,-1.20
2023-02-08T02:26:12.371Z,-1.20
2023-02-08T02:29:40.994Z,-1.20
2023-02-08T02:32:43.459Z,-1.10
2023-02-08T02:35:43.651Z,-1.20
2023-02-08T02:38:42.965Z,-1.10
2023-02-08T02:41:57.623Z,-1.10
2023-02-08T02:44:54.643Z,-1.10
2023-02-08T02:47:46.872Z,-1.20
2023-02-08T02:50:38.384Z,-1.10
2023-02-08T02:53:30.701Z,-1.10
2023-02-08T02:56:22.467Z,-1.10
2023-02-08T02:59:13.171Z,-1.10
2023-02-08T03:02:00.812Z,-1.20
2023-02-08T03:04:55.689Z,-1.20
2023-02-08T03:08:10.467Z,-1.20
2023-02-08T03:11:15.846Z,-1.20
2023-02-08T03:14:16.407Z,-1.20
2023-02-08T03:17:17.571Z,-1.20
2023-02-08T03:20:10.994Z,-1.20
2023-02-08T03:23:03.587Z,-1.30
2023-02-08T03:26:00.671Z,-1.30
2023-02-08T03:28:56.897Z,-1.30
2023-02-08T03:31:52.453Z,-1.30
2023-02-08T03:34:48.197Z,-1.30
2023-02-08T03:37:42.126Z,-1.20
2023-02-08T03:40:33.744Z,-1.20
2023-02-08T03:43:25.288Z,-1.30
2023-02-08T03:46:18.413Z,-1.30
2023-02-08T03:49:08.918Z,-1.30
2023-02-08T03:51:59.564Z,-1.30
2023-02-08T03:54:52.697Z,-1.30
2023-02-08T03:57:47.534Z,-1.30
2023-02-08T04:00:40.556Z,-1.30
2023-02-08T04:03:31.682Z,-1.30
2023-02-08T04:06:19.518Z,-1.30
2023-02-08T04:09:07.251Z,-1.30
2023-02-08T04:11:55.987Z,-1.30
2023-02-08T04:14:43.363Z,-1.30
2023-02-08T04:17:30.719Z,-1.30
2023-02-08T04:20:18.324Z,-1.30
2023-02-08T04:23:06.061Z,-1.30
2023-02-08T04:25:53.664Z,-1.30
2023-02-08T04:28:42.457Z,-1.30
2023-02-08T04:31:30.309Z,-1.30
2023-02-08T04:34:18.349Z,-1.30
2023-02-08T04:37:06.048Z,-1.30
2023-02-08T04:39:53.829Z,-1.30
2023-02-08T04:42:41.416Z,-1.30
2023-02-08T04:45:32.202Z,-1.30
2023-02-08T04:48:19.946Z,-1.30
2023-02-08T04:51:07.377Z,-1.30
2023-02-08T04:53:54.886Z,-1.30
2023-02-08T04:56:42.376Z,-1.30
2023-02-08T04:59:29.942Z,-1.30
2023-02-08T05:02:18.618Z,-1.30
2023-02-08T05:05:06.575Z,-1.30
2023-02-08T05:07:54.366Z,-1.30
2023-02-08T05:10:46.991Z,-1.30
2023-02-08T05:13:34.520Z,-1.30
2023-02-08T05:16:22.139Z,-1.40
2023-02-08T05:19:12.080Z,-1.40
2023-02-08T05:21:59.469Z,-1.40
2023-02-08T05:24:46.949Z,-1.50
2023-02-08T05:27:35.921Z,-1.70
2023-02-08T05:30:23.511Z,-1.90
2023-02-08T05:33:11.090Z,-2.00
2023-02-08T05:36:00.356Z,-2.20
2023-02-08T05:38:48.178Z,-2.40
2023-02-08T05:41:35.807Z,-2.60
2023-02-08T05:44:23.350Z,-2.80
2023-02-08T05:47:11.083Z,-2.90
2023-02-08T05:49:58.409Z,-3.10
2023-02-08T05:52:47.449Z,-3.20
2023-02-08T05:55:35.208Z,-3.40
2023-02-08T05:58:22.704Z,-3.50
2023-02-08T06:01:11.534Z,-3.50
2023-02-08T06:04:00.645Z,-3.70
2023-02-08T06:06:48.108Z,-3.80
2023-02-08T06:09:36.962Z,-3.90
2023-02-08T06:12:24.689Z,-4.00
2023-02-08T06:15:12.199Z,-4.00
2023-02-08T06:18:00.136Z,-4.10
2023-02-08T06:20:47.894Z,-4.10
2023-02-08T06:23:35.724Z,-4.20
2023-02-08T06:26:24.627Z,-4.30
2023-02-08T06:29:11.985Z,-4.30
2023-02-08T06:31:59.844Z,-4.40
2023-02-08T06:34:48.485Z,-4.40
2023-02-08T06:37:35.778Z,-4.50
2023-02-08T06:40:23.954Z,-4.50
2023-02-08T06:43:13.574Z,-4.50
2023-02-08T06:46:04.873Z,-4.50
2023-02-08T06:48:52.659Z,-4.60
2023-02-08T06:51:41.486Z,-4.60
2023-02-08T06:54:29.193Z,-4.60
2023-02-08T06:57:16.840Z,-4.60
2023-02-08T07:00:06.978Z,-4.60
2023-02-08T07:02:54.396Z,-4.60
2023-02-08T07:05:49.464Z,-4.60
2023-02-08T07:08:43.062Z,-4.50
2023-02-08T07:11:30.408Z,-4.40
2023-02-08T07:14:17.733Z,-4.30
2023-02-08T07:17:06.663Z,-4.20
2023-02-08T07:19:54.675Z,-4.10
2023-02-08T07:22:42.515Z,-4.00
2023-02-08T07:25:30.170Z,-3.90
2023-02-08T07:28:17.853Z,-3.70
2023-02-08T07:31:07.203Z,-3.60
2023-02-08T07:33:56.215Z,-3.40
2023-02-08T07:36:43.795Z,-3.20
2023-02-08T07:39:31.524Z,-3.10
2023-02-08T07:42:19.597Z,-2.90
2023-02-08T07:45:15.987Z,-2.70
2023-02-08T07:48:03.418Z,-2.50
2023-02-08T07:50:52.177Z,-2.30
2023-02-08T07:53:40.558Z,-2.20
2023-02-08T07:56:27.841Z,-2.10
2023-02-08T07:59:16.164Z,-1.90
2023-02-08T08:02:03.596Z,-1.80
2023-02-08T08:04:54.156Z,-1.70
2023-02-08T08:07:42.953Z,-1.50
2023-02-08T08:10:30.302Z,-1.40
2023-02-08T08:13:18.007Z,-1.20
2023-02-08T08:16:05.836Z,-1.10
2023-02-08T08:18:53.364Z,-1.00
2023-02-08T08:21:40.821Z,-0.90
2023-02-08T08:24:31.400Z,-0.80
2023-02-08T08:27:18.867Z,-0.60
2023-02-08T08:30:08.481Z,-0.50
2023-02-08T08:32:56.171Z,-0.40
2023-02-08T08:35:44.422Z,-0.30
2023-02-08T08:38:31.955Z,-0.10
2023-02-08T08:41:22.391Z,0.00
2023-02-08T08:44:09.870Z,0.10
2023-02-08T08:46:57.786Z,0.10
2023-02-08T08:49:45.534Z,0.20
2023-02-08T08:52:33.294Z,0.30
2023-02-08T08:55:20.902Z,0.40
2023-02-08T08:58:09.635Z,0.50
2023-02-08T09:00:58.913Z,0.50
2023-02-08T09:03:46.793Z,0.60
2023-02-08T09:06:35.060Z,0.70
2023-02-08T09:09:23.295Z,0.70
2023-02-08T09:12:10.928Z,0.80
2023-02-08T09:14:59.728Z,0.80
2023-02-08T09:17:47.593Z,0.90
2023-02-08T09:20:35.150Z,0.90
2023-02-08T09:23:22.448Z,1.00
2023-02-08T09:26:13.324Z,1.00
2023-02-08T09:29:01.006Z,1.10
2023-02-08T09:31:50.120Z,1.20
2023-02-08T09:34:37.805Z,1.20
2023-02-08T09:37:25.247Z,1.30
2023-02-08T09:40:23.784Z,1.30
2023-02-08T09:43:19.594Z,1.30
2023-02-08T09:46:11.970Z,1.30
2023-02-08T09:49:04.301Z,1.30
2023-02-08T09:51:55.352Z,1.40
2023-02-08T09:54:48.706Z,1.40
2023-02-08T09:57:37.354Z,1.40
2023-02-08T10:00:33.232Z,1.40
2023-02-08T10:03:30.809Z,1.30
2023-02-08T10:06:21.244Z,1.30
2023-02-08T10:09:15.182Z,1.20
2023-02-08T10:12:13.941Z,1.30
2023-02-08T10:15:11.541Z,1.30
2023-02-08T10:18:14.502Z,1.40
2023-02-08T10:21:25.962Z,1.40
2023-02-08T10:24:31.906Z,1.50
2023-02-08T10:27:25.761Z,1.50
2023-02-08T10:30:26.002Z,1.50
2023-02-08T10:33:19.879Z,1.50
2023-02-08T10:36:15.728Z,1.60
2023-02-08T10:39:11.520Z,1.60
2023-02-08T10:42:00.225Z,1.60
2023-02-08T10:45:04.067Z,1.60
2023-02-08T10:47:55.989Z,1.60
2023-02-08T10:50:46.083Z,1.60
2023-02-08T10:53:33.643Z,1.70
2023-02-08T10:56:35.892Z,1.80
2023-02-08T10:59:27.044Z,1.80
2023-02-08T11:02:22.400Z,1.90
2023-02-08T11:05:13.505Z,2.00
2023-02-08T11:08:09.622Z,2.10
2023-02-08T11:10:59.892Z,2.20
2023-02-08T11:13:51.457Z,2.30
2023-02-08T11:16:39.796Z,2.40
2023-02-08T11:19:35.538Z,2.50
2023-02-08T11:22:26.125Z,2.50
2023-02-08T11:25:35.770Z,2.40
2023-02-08T11:28:27.528Z,2.40
2023-02-08T11:31:20.978Z,2.40
2023-02-08T11:34:10.285Z,2.40
2023-02-08T11:37:00.498Z,2.50
2023-02-08T11:39:54.329Z,2.40
2023-02-08T11:42:44.323Z,2.40
2023-02-08T11:45:34.322Z,2.50
2023-02-08T11:48:27.334Z,2.60
2023-02-08T11:51:24.577Z,2.80
2023-02-08T11:54:41.406Z,3.00
2023-02-08T11:57:29.152Z,3.10
2023-02-08T12:00:20.997Z,3.30
2023-02-08T12:03:15.709Z,3.50
2023-02-08T12:06:17.400Z,3.50
2023-02-08T12:09:18.041Z,3.30
2023-02-08T12:12:18.807Z,3.20
2023-02-08T12:15:13.218Z,3.20
2023-02-08T12:18:12.700Z,3.20
2023-02-08T12:21:08.343Z,3.10
2023-02-08T12:23:58.722Z,3.00
2023-02-08T12:27:01.568Z,2.70
2023-02-08T12:29:54.549Z,2.40
2023-02-08T12:33:29.286Z,2.40
2023-02-08T12:36:36.568Z,2.40
2023-02-08T12:39:54.098Z,2.50
2023-02-08T12:42:54.250Z,2.60
2023-02-08T12:46:06.276Z,2.60
2023-02-08T12:49:04.220Z,2.60
2023-02-08T12:52:03.207Z,2.50
2023-02-08T12:54:55.549Z,2.60
2023-02-08T12:57:46.020Z,2.70
2023-02-08T13:00:35.891Z,2.70
2023-02-08T13:03:36.461Z,2.80
2023-02-08T13:06:26.686Z,2.70
2023-02-08T13:09:23.494Z,2.50
2023-02-08T13:12:17.255Z,2.50
2023-02-08T13:15:13.749Z,2.50
2023-02-08T13:18:16.743Z,2.50
2023-02-08T13:21:07.909Z,2.50
2023-02-08T13:23:56.297Z,2.50
2023-02-08T13:26:45.740Z,2.80
2023-02-08T13:29:33.715Z,3.10
2023-02-08T13:32:30.234Z,3.50
2023-02-08T13:35:20.317Z,3.70
2023-02-08T13:38:24.837Z,3.80
2023-02-08T13:41:17.779Z,3.70
2023-02-08T13:44:17.894Z,3.40
2023-02-08T13:47:06.328Z,3.20
2023-02-08T13:49:57.037Z,2.90
2023-02-08T13:52:52.601Z,2.70
2023-02-08T13:55:56.796Z,2.60
2023-02-08T13:59:07.118Z,2.50
2023-02-08T14:02:27.081Z,2.50
2023-02-08T14:05:45.348Z,2.40
2023-02-08T14:08:41.819Z,2.40
2023-02-08T14:11:40.382Z,2.20
2023-02-08T14:14:31.435Z,2.00
2023-02-08T14:17:23.670Z,1.90
2023-02-08T14:20:20.785Z,1.90
2023-02-08T14:23:22.319Z,2.10
2023-02-08T14:26:11.727Z,2.40
2023-02-08T14:29:03.417Z,2.90
2023-02-08T14:31:53.474Z,3.20
2023-02-08T14:34:41.979Z,3.40
2023-02-08T14:37:31.538Z,3.50
2023-02-08T14:40:48.773Z,3.50
2023-02-08T14:43:38.549Z,3.40
2023-02-08T14:46:45.093Z,3.30
2023-02-08T14:49:40.803Z,3.20
2023-02-08T14:52:30.327Z,3.10
2023-02-08T14:55:21.849Z,3.00
2023-02-08T14:58:14.164Z,2.70
2023-02-08T15:01:04.130Z,2.60
2023-02-08T15:03:55.528Z,2.60
2023-02-08T15:07:02.251Z,2.60
2023-02-08T15:09:49.790Z,2.70
2023-02-08T15:12:40.242Z,2.80
2023-02-08T15:15:31.608Z,2.60
2023-02-08T15:18:23.468Z,2.30
2023-02-08T15:21:18.012Z,2.00
2023-02-08T15:24:15.877Z,1.80
2023-02-08T15:27:03.204Z,1.50
2023-02-08T15:29:50.688Z,1.20
2023-02-08T15:32:38.426Z,1.00
2023-02-08T15:35:27.326Z,0.80
2023-02-08T15:38:19.500Z,0.60
2023-02-08T15:41:10.760Z,0.50
2023-02-08T15:44:04.695Z,0.30
2023-02-08T15:49:44.112Z,-0.10
2023-02-08T15:52:36.161Z,-0.30
2023-02-08T15:55:24.286Z,-0.40
2023-02-08T15:58:22.042Z,-0.60
2023-02-08T16:01:16.308Z,-0.70
2023-02-08T16:04:08.374Z,-0.90
2023-02-08T16:06:59.277Z,-1.00
2023-02-08T16:09:48.553Z,-1.10
2023-02-08T16:12:37.187Z,-1.20
2023-02-08T16:15:45.068Z,-1.30
2023-02-08T16:18:41.650Z,-1.50
2023-02-08T16:21:34.018Z,-1.70
2023-02-08T16:24:25.342Z,-1.80
2023-02-08T16:27:21.566Z,-1.90
2023-02-08T16:30:19.042Z,-2.10
2023-02-08T16:33:09.894Z,-2.20
2023-02-08T16:36:01.922Z,-2.30
2023-02-08T16:39:46.954Z,-2.40
2023-02-08T16:42:36.916Z,-2.50
2023-02-08T16:45:24.338Z,-2.50
2023-02-08T16:48:33.434Z,-2.60
2023-02-08T16:51:23.033Z,-2.70
2023-02-08T16:54:15.364Z,-2.70
2023-02-08T16:57:05.920Z,-2.80
2023-02-08T16:59:56.785Z,-2.80
2023-02-08T17:02:44.295Z,-2.90
2023-02-08T17:05:37.674Z,-3.00
2023-02-08T17:08:25.345Z,-3.10
2023-02-08T17:11:12.801Z,-3.10
2023-02-08T17:14:00.211Z,-3.10
2023-02-08T17:16:47.731Z,-3.20
2023-02-08T17:19:35.352Z,-3.30
2023-02-08T17:22:24.052Z,-3.30
2023-02-08T17:25:15.606Z,-3.40
2023-02-08T17:28:05.172Z,-3.40
2023-02-08T17:30:53.272Z,-3.50
2023-02-08T17:33:41.180Z,-3.50
2023-02-08T17:36:28.669Z,-3.50
2023-02-08T17:39:17.873Z,-3.50
2023-02-08T17:42:05.548Z,-3.60
2023-02-08T17:44:53.136Z,-3.60
2023-02-08T17:47:41.800Z,-3.70
2023-02-08T17:50:29.230Z,-3.70
2023-02-08T17:53:17.241Z,-3.80
2023-02-08T17:56:08.419Z,-3.80
2023-02-08T17:58:57.746Z,-3.80
2023-02-08T18:01:45.771Z,-3.80
2023-02-08T18:04:33.401Z,-3.90
2023-02-08T18:07:21.649Z,-3.90
2023-02-08T18:10:10.498Z,-3.80
2023-02-08T18:13:00.204Z,-3.80
2023-02-08T18:15:48.356Z,-3.70
2023-02-08T18:18:35.661Z,-3.60
2023-02-08T18:21:25.591Z,-3.60
2023-02-08T18:24:13.036Z,-3.50
2023-02-08T18:27:00.510Z,-3.50
2023-02-08T18:29:49.593Z,-3.40
2023-02-08T18:32:37.047Z,-3.40
2023-02-08T18:35:24.440Z,-3.40
2023-02-08T18:38:12.359Z,-3.30
2023-02-08T18:40:59.876Z,-3.20
2023-02-08T18:43:47.416Z,-3.20
2023-02-08T18:46:36.524Z,-3.10
2023-02-08T18:49:24.386Z,-3.10
2023-02-08T18:52:13.481Z,-3.00
2023-02-08T18:55:01.257Z,-3.10
2023-02-08T18:57:49.026Z,-3.10
2023-02-08T19:00:36.680Z,-3.10
2023-02-08T19:03:25.655Z,-3.10
2023-02-08T19:06:16.361Z,-3.10
2023-02-08T19:09:06.472Z,-3.10
2023-02-08T19:11:54.651Z,-3.10
2023-02-08T19:14:43.275Z,-3.10
2023-02-08T19:17:30.699Z,-3.20
2023-02-08T19:20:19.675Z,-3.20
2023-02-08T19:23:07.397Z,-3.30
2023-02-08T19:25:55.284Z,-3.30
2023-02-08T19:28:42.720Z,-3.40
2023-02-08T19:31:30.742Z,-3.40
2023-02-08T19:34:18.627Z,-3.50
2023-02-08T19:37:07.627Z,-3.50
2023-02-08T19:39:55.507Z,-3.60
2023-02-08T19:42:44.539Z,-3.60
2023-02-08T19:45:32.305Z,-3.80
2023-02-08T19:48:22.074Z,-3.90
2023-02-08T19:51:10.635Z,-4.00
2023-02-08T19:54:01.032Z,-4.10
2023-02-08T19:56:50.340Z,-4.20
2023-02-08T19:59:37.921Z,-4.30
2023-02-08T20:02:27.415Z,-4.40
2023-02-08T20:05:15.328Z,-4.50
2023-02-08T20:08:02.964Z,-4.50
2023-02-08T20:10:51.849Z,-4.60
2023-02-08T20:13:39.454Z,-4.70
2023-02-08T20:16:31.238Z,-4.70
2023-02-08T20:19:19.084Z,-4.70
2023-02-08T20:22:06.820Z,-4.70
2023-02-08T20:24:54.699Z,-4.70
2023-02-08T20:27:43.821Z,-4.70
2023-02-08T20:30:31.186Z,-4.70
2023-02-08T20:33:18.620Z,-4.80
2023-02-08T20:36:10.987Z,-4.70
2023-02-08T20:38:59.386Z,-4.70
2023-02-08T20:41:47.599Z,-4.70
2023-02-08T20:44:36.777Z,-4.70
2023-02-08T20:47:24.191Z,-4.80
2023-02-08T20:50:18.771Z,-4.70
2023-02-08T20:53:07.534Z,-4.80
2023-02-08T20:55:54.905Z,-4.80
2023-02-08T20:58:42.955Z,-4.80
2023-02-08T21:01:41.794Z,-4.80
2023-02-08T21:04:29.562Z,-4.80
2023-02-08T21:07:17.644Z,-4.80
2023-02-08T21:10:05.273Z,-4.80
2023-02-08T21:12:52.938Z,-4.80
2023-02-08T21:15:43.714Z,-4.80
2023-02-08T21:18:32.777Z,-4.90
2023-02-08T21:21:21.146Z,-4.90
2023-02-08T21:24:08.972Z,-4.90
2023-02-08T21:26:57.814Z,-4.90
2023-02-08T21:29:45.240Z,-4.90
2023-02-08T21:32:33.036Z,-5.00
2023-02-08T21:35:22.044Z,-5.00
2023-02-08T21:38:09.706Z,-5.00
2023-02-08T21:40:57.043Z,-5.00
2023-02-08T21:43:44.726Z,-5.10
2023-02-08T21:46:33.154Z,-5.10
2023-02-08T21:49:38.010Z,-5.10
2023-02-08T21:52:44.412Z,-5.10
2023-02-08T21:55:31.986Z,-5.10
2023-02-08T21:58:19.652Z,-5.00
2023-02-08T22:01:07.273Z,-5.00
2023-02-08T22:03:54.586Z,-4.90
2023-02-08T22:06:50.732Z,-4.90
2023-02-08T22:09:41.617Z,-4.80
2023-02-08T22:12:28.903Z,-4.80
2023-02-08T22:15:18.507Z,-4.80
2023-02-08T22:18:06.418Z,-4.80
2023-02-08T22:20:54.025Z,-4.70
2023-02-08T22:23:41.738Z,-4.60
2023-02-08T22:26:30.672Z,-4.50
2023-02-08T22:29:18.200Z,-4.40
2023-02-08T22:32:07.561Z,-4.30
2023-02-08T22:34:55.160Z,-4.20
2023-02-08T22:37:42.818Z,-4.20
2023-02-08T22:40:30.637Z,-4.20
2023-02-08T22:43:19.710Z,-4.20
2023-02-08T22:46:07.898Z,-4.20
2023-02-08T22:48:55.783Z,-4.10
2023-02-08T22:51:43.517Z,-4.10
2023-02-08T22:54:31.089Z,-4.10
2023-02-08T22:57:18.986Z,-4.20
2023-02-08T23:00:10.301Z,-4.20
2023-02-08T23:02:58.054Z,-4.20
2023-02-08T23:05:48.224Z,-4.20
2023-02-08T23:08:36.981Z,-4.30
2023-02-08T23:11:24.985Z,-4.30
2023-02-08T23:14:12.630Z,-4.30
2023-02-08T23:17:01.734Z,-4.30
2023-02-08T23:19:49.555Z,-4.30
2023-02-08T23:22:37.932Z,-4.30
2023-02-08T23:25:25.674Z,-4.30
2023-02-08T23:28:13.833Z,-4.40
2023-02-08T23:31:01.588Z,-4.40
2023-02-08T23:33:51.314Z,-4.40
2023-02-08T23:36:38.916Z,-4.50
2023-02-08T23:39:26.571Z,-4.50
2023-02-08T23:42:25.480Z,-4.60
2023-02-08T23:45:13.056Z,-4.70
2023-02-08T23:48:00.794Z,-4.80
2023-02-08T23:50:58.026Z,-4.90
2023-02-08T23:53:45.842Z,-5.00
2023-02-08T23:56:33.658Z,-5.10
2023-02-08T23:59:21.552Z,-5.10
